createdAt,value
2022-09-21T00:00:38.396Z,7.60
2022-09-21T00:03:05.056Z,7.50
2022-09-21T00:05:35.773Z,7.50
2022-09-21T00:08:06.238Z,7.50
2022-09-21T00:10:34.995Z,7.50
2022-09-21T00:13:02.518Z,7.50
2022-09-21T00:15:30.288Z,7.50
2022-09-21T00:18:01.117Z,7.40
2022-09-21T00:20:29.892Z,7.30
2022-09-21T00:22:58.983Z,7.30
2022-09-21T00:25:28.370Z,7.40
2022-09-21T00:27:55.331Z,7.40
2022-09-21T00:30:24.342Z,7.40
2022-09-21T00:32:53.016Z,7.40
2022-09-21T00:35:22.272Z,7.40
2022-09-21T00:37:51.199Z,7.40
2022-09-21T00:40:18.029Z,7.40
2022-09-21T00:42:51.078Z,7.30
2022-09-21T00:48:14.097Z,7.30
2022-09-21T00:50:48.528Z,7.30
2022-09-21T00:53:21.214Z,7.30
2022-09-21T00:55:52.128Z,7.40
2022-09-21T00:58:24.882Z,7.40
2022-09-21T01:00:51.755Z,7.40
2022-09-21T01:03:22.177Z,7.40
2022-09-21T01:05:49.865Z,7.40
2022-09-21T01:08:20.250Z,7.30
2022-09-21T01:11:20.191Z,7.20
2022-09-21T01:13:56.162Z,7.20
2022-09-21T01:16:25.712Z,7.10
2022-09-21T01:19:26.849Z,7.00
2022-09-21T01:22:32.198Z,7.00
2022-09-21T01:25:32.367Z,7.00
2022-09-21T01:28:21.057Z,7.00
2022-09-21T01:36:37.431Z,7.00
2022-09-21T01:39:14.189Z,7.00
2022-09-21T01:41:43.460Z,6.90
2022-09-21T01:44:17.276Z,6.80
2022-09-21T01:46:46.024Z,6.80
2022-09-21T01:49:22.858Z,6.70
2022-09-21T01:51:57.684Z,6.70
2022-09-21T01:54:33.564Z,6.70
2022-09-21T01:57:20.505Z,6.60
2022-09-21T01:59:59.300Z,6.60
2022-09-21T02:02:41.579Z,6.60
2022-09-21T02:05:10.054Z,6.60
2022-09-21T02:07:38.845Z,6.50
2022-09-21T02:10:08.805Z,6.50
2022-09-21T02:12:43.441Z,6.40
2022-09-21T02:15:12.632Z,6.40
2022-09-21T02:18:10.442Z,6.40
2022-09-21T02:20:45.715Z,6.40
2022-09-21T02:23:18.320Z,6.40
2022-09-21T02:26:15.425Z,6.40
2022-09-21T02:28:45.176Z,6.40
2022-09-21T02:31:35.150Z,6.40
2022-09-21T02:34:02.232Z,6.50
2022-09-21T02:36:56.202Z,6.50
2022-09-21T02:40:03.618Z,6.50
2022-09-21T02:42:34.083Z,6.50
2022-09-21T02:45:09.661Z,6.40
2022-09-21T02:47:51.756Z,6.40
2022-09-21T02:50:25.060Z,6.50
2022-09-21T02:52:54.164Z,6.40
2022-09-21T02:55:22.327Z,6.40
2022-09-21T02:57:50.274Z,6.30
2022-09-21T03:00:17.238Z,6.40
2022-09-21T03:02:44.687Z,6.30
2022-09-21T03:05:15.902Z,6.40
2022-09-21T03:07:42.539Z,6.30
2022-09-21T03:10:09.813Z,6.40
2022-09-21T03:12:36.710Z,6.30
2022-09-21T03:15:05.420Z,6.30
2022-09-21T03:17:36.723Z,6.20
2022-09-21T03:20:03.658Z,6.20
2022-09-21T03:22:30.217Z,6.10
2022-09-21T03:24:56.873Z,6.10
2022-09-21T03:27:28.824Z,6.00
2022-09-21T03:29:58.857Z,6.00
2022-09-21T03:32:30.763Z,5.90
2022-09-21T03:34:57.351Z,5.90
2022-09-21T03:37:26.247Z,5.90
2022-09-21T03:39:55.280Z,6.00
2022-09-21T03:42:24.017Z,6.00
2022-09-21T03:44:50.688Z,6.00
2022-09-21T03:47:19.962Z,6.00
2022-09-21T03:49:48.345Z,6.00
2022-09-21T03:52:14.891Z,5.90
2022-09-21T03:54:41.840Z,5.90
2022-09-21T03:57:16.687Z,5.80
2022-09-21T03:59:43.313Z,5.80
2022-09-21T04:02:12.466Z,5.80
2022-09-21T04:04:41.387Z,5.80
2022-09-21T04:07:10.303Z,5.70
2022-09-21T04:15:41.368Z,5.60
2022-09-21T04:18:11.310Z,5.70
2022-09-21T04:20:38.533Z,5.70
2022-09-21T04:23:09.114Z,5.70
2022-09-21T04:25:43.034Z,5.70
2022-09-21T04:28:09.595Z,5.70
2022-09-21T04:30:37.970Z,5.70
2022-09-21T04:33:05.241Z,5.80
2022-09-21T04:35:32.062Z,5.80
2022-09-21T04:38:01.206Z,5.70
2022-09-21T04:40:30.376Z,5.70
2022-09-21T04:43:05.520Z,5.70
2022-09-21T04:45:40.489Z,5.70
2022-09-21T04:48:14.503Z,5.60
2022-09-21T04:50:41.098Z,5.60
2022-09-21T04:53:09.598Z,5.60
2022-09-21T04:55:36.152Z,5.60
2022-09-21T04:58:06.426Z,5.60
2022-09-21T05:00:35.032Z,5.60
2022-09-21T05:03:04.683Z,5.50
2022-09-21T05:08:44.255Z,5.50
2022-09-21T05:11:20.617Z,5.40
2022-09-21T05:13:47.435Z,5.50
2022-09-21T05:16:15.301Z,5.40
2022-09-21T05:18:42.124Z,5.40
2022-09-21T05:21:13.302Z,5.40
2022-09-21T05:23:40.125Z,5.30
2022-09-21T05:26:09.182Z,5.30
2022-09-21T05:28:39.917Z,5.30
2022-09-21T05:31:35.591Z,5.30
2022-09-21T05:34:18.469Z,5.30
2022-09-21T05:37:25.781Z,5.30
2022-09-21T05:39:52.896Z,5.30
2022-09-21T05:42:20.059Z,5.30
2022-09-21T05:44:50.607Z,5.30
2022-09-21T05:47:44.071Z,5.30
2022-09-21T05:50:21.499Z,5.30
2022-09-21T05:53:09.235Z,5.40
2022-09-21T05:56:01.578Z,5.30
2022-09-21T05:58:54.693Z,5.40
2022-09-21T06:01:53.956Z,5.40
2022-09-21T06:04:24.675Z,5.40
2022-09-21T06:06:53.765Z,5.50
2022-09-21T06:09:20.675Z,5.50
2022-09-21T06:11:47.672Z,5.60
2022-09-21T06:14:16.425Z,5.60
2022-09-21T06:16:45.562Z,5.60
2022-09-21T06:19:13.016Z,5.60
2022-09-21T06:21:41.870Z,5.70
2022-09-21T06:24:08.766Z,5.70
2022-09-21T06:26:37.755Z,5.80
2022-09-21T06:29:04.500Z,5.90
2022-09-21T06:31:31.117Z,6.00
2022-09-21T06:33:57.738Z,6.10
2022-09-21T06:36:24.312Z,6.20
2022-09-21T06:38:53.522Z,6.20
2022-09-21T06:41:21.400Z,6.30
2022-09-21T06:43:52.554Z,6.30
2022-09-21T06:46:19.311Z,6.40
2022-09-21T06:48:47.980Z,6.40
2022-09-21T06:51:14.735Z,6.50
2022-09-21T06:53:45.202Z,6.60
2022-09-21T06:56:12.032Z,6.70
2022-09-21T06:58:39.090Z,6.80
2022-09-21T07:01:07.642Z,6.90
2022-09-21T07:03:35.355Z,7.00
2022-09-21T07:06:08.078Z,7.10
2022-09-21T07:11:23.230Z,7.30
2022-09-21T07:13:49.979Z,7.50
2022-09-21T07:16:17.576Z,7.60
2022-09-21T07:18:44.524Z,7.80
2022-09-21T07:21:14.067Z,7.90
2022-09-21T07:23:41.855Z,8.10
2022-09-21T07:26:12.770Z,8.20
2022-09-21T07:28:39.490Z,8.40
2022-09-21T07:31:22.200Z,8.50
2022-09-21T07:33:48.967Z,8.70
2022-09-21T07:36:19.893Z,8.90
2022-09-21T07:38:48.933Z,9.00
2022-09-21T07:41:15.516Z,9.20
2022-09-21T07:43:42.220Z,9.40
2022-09-21T07:46:11.236Z,9.60
2022-09-21T07:48:39.272Z,9.70
2022-09-21T07:51:08.783Z,9.80
2022-09-21T07:53:39.756Z,10.00
2022-09-21T07:56:09.724Z,10.20
2022-09-21T07:58:57.178Z,10.30
2022-09-21T08:01:24.988Z,10.50
2022-09-21T08:03:53.513Z,10.70
2022-09-21T08:06:24.119Z,10.80
2022-09-21T08:08:57.425Z,11.00
2022-09-21T08:11:25.983Z,11.20
2022-09-21T08:14:04.926Z,11.40
2022-09-21T08:16:34.406Z,11.60
2022-09-21T08:19:02.421Z,11.80
2022-09-21T08:21:29.192Z,12.00
2022-09-21T08:23:56.887Z,12.20
2022-09-21T08:26:24.755Z,12.40
2022-09-21T08:28:52.662Z,12.60
2022-09-21T08:31:23.517Z,12.70
2022-09-21T08:33:51.381Z,12.90
2022-09-21T08:36:20.363Z,13.00
2022-09-21T08:38:47.641Z,13.10
2022-09-21T08:41:20.905Z,13.40
2022-09-21T08:44:09.918Z,13.50
2022-09-21T08:46:39.651Z,13.60
2022-09-21T08:49:20.750Z,13.80
2022-09-21T08:52:02.427Z,13.90
2022-09-21T08:54:48.821Z,14.10
2022-09-21T08:57:16.856Z,14.30
2022-09-21T08:59:48.340Z,14.60
2022-09-21T09:02:29.820Z,14.70
2022-09-21T09:05:15.078Z,14.80
2022-09-21T09:08:09.929Z,14.90
2022-09-21T09:11:06.037Z,14.90
2022-09-21T09:14:10.371Z,15.10
2022-09-21T09:16:49.127Z,15.30
2022-09-21T09:19:20.784Z,15.60
2022-09-21T09:21:51.123Z,15.80
2022-09-21T09:24:36.243Z,16.10
2022-09-21T09:27:14.693Z,16.30
2022-09-21T09:29:51.625Z,16.50
2022-09-21T09:32:19.063Z,16.70
2022-09-21T09:35:04.844Z,16.80
2022-09-21T09:37:41.895Z,17.10
2022-09-21T09:40:12.693Z,17.30
2022-09-21T09:42:59.206Z,17.20
2022-09-21T09:46:09.971Z,17.10
2022-09-21T09:48:53.350Z,17.20
2022-09-21T09:51:23.269Z,17.00
2022-09-21T09:53:51.161Z,16.70
2022-09-21T09:56:18.620Z,16.60
2022-09-21T09:59:07.452Z,16.40
2022-09-21T10:01:48.248Z,16.20
2022-09-21T10:04:16.882Z,16.10
2022-09-21T10:06:46.789Z,16.40
2022-09-21T10:09:25.615Z,16.60
2022-09-21T10:11:57.065Z,16.80
2022-09-21T10:14:26.235Z,17.00
2022-09-21T10:16:54.882Z,16.90
2022-09-21T10:19:24.633Z,16.80
2022-09-21T10:21:59.288Z,16.50
2022-09-21T10:24:36.623Z,16.50
2022-09-21T10:27:16.934Z,16.40
2022-09-21T10:29:48.767Z,16.50
2022-09-21T10:32:18.186Z,16.90
2022-09-21T10:35:20.673Z,17.30
2022-09-21T10:37:52.049Z,17.50
2022-09-21T10:40:18.885Z,17.20
2022-09-21T10:42:50.236Z,16.80
2022-09-21T10:45:20.433Z,16.40
2022-09-21T10:48:09.089Z,16.70
2022-09-21T10:50:40.791Z,17.00
2022-09-21T10:53:14.029Z,17.10
2022-09-21T10:56:14.525Z,17.30
2022-09-21T10:59:21.119Z,17.70
2022-09-21T11:01:55.994Z,18.00
2022-09-21T11:04:50.096Z,18.20
2022-09-21T11:07:21.943Z,18.30
2022-09-21T11:09:59.182Z,18.60
2022-09-21T11:12:50.474Z,18.70
2022-09-21T11:15:52.385Z,19.00
2022-09-21T11:18:53.904Z,19.00
2022-09-21T11:22:15.899Z,19.00
2022-09-21T11:24:54.227Z,19.20
2022-09-21T11:27:35.241Z,19.00
2022-09-21T11:30:12.621Z,19.00
2022-09-21T11:33:01.999Z,19.20
2022-09-21T11:35:48.083Z,19.60
2022-09-21T11:38:33.635Z,20.00
2022-09-21T11:41:38.788Z,20.30
2022-09-21T11:44:28.680Z,20.40
2022-09-21T11:47:33.950Z,20.70
2022-09-21T11:50:29.627Z,20.80
2022-09-21T11:53:13.649Z,20.90
2022-09-21T11:56:05.152Z,21.00
2022-09-21T11:58:36.594Z,21.20
2022-09-21T12:01:27.886Z,21.30
2022-09-21T12:04:20.180Z,21.30
2022-09-21T12:07:04.803Z,20.80
2022-09-21T12:09:55.114Z,20.60
2022-09-21T12:12:59.926Z,20.70
2022-09-21T12:19:23.818Z,20.80
2022-09-21T12:22:08.627Z,20.70
2022-09-21T12:24:45.193Z,20.80
2022-09-21T12:27:43.063Z,20.60
2022-09-21T12:30:21.412Z,21.00
2022-09-21T12:33:15.607Z,21.30
2022-09-21T12:35:58.675Z,21.10
2022-09-21T12:38:57.904Z,20.90
2022-09-21T12:42:01.244Z,20.40
2022-09-21T12:44:33.593Z,20.80
2022-09-21T12:47:23.095Z,20.80
2022-09-21T12:50:18.652Z,20.90
2022-09-21T12:53:19.178Z,21.20
2022-09-21T12:56:23.286Z,21.60
2022-09-21T12:59:01.220Z,21.80
2022-09-21T13:01:42.723Z,21.90
2022-09-21T13:05:01.357Z,21.70
2022-09-21T13:08:05.743Z,21.20
2022-09-21T13:10:40.680Z,20.90
2022-09-21T13:13:58.816Z,20.90
2022-09-21T13:16:41.942Z,20.70
2022-09-21T13:19:12.909Z,21.00
2022-09-21T13:21:46.814Z,21.40
2022-09-21T13:24:38.994Z,21.30
2022-09-21T13:27:08.480Z,21.50
2022-09-21T13:29:43.306Z,21.60
2022-09-21T13:32:09.950Z,21.90
2022-09-21T13:34:38.353Z,22.00
2022-09-21T13:37:13.589Z,21.70
2022-09-21T13:40:00.436Z,21.30
2022-09-21T13:42:48.484Z,21.20
2022-09-21T13:45:15.514Z,21.30
2022-09-21T13:47:45.041Z,21.30
2022-09-21T13:50:25.974Z,21.20
2022-09-21T13:52:58.443Z,21.40
2022-09-21T13:55:38.471Z,21.40
2022-09-21T13:58:31.861Z,21.60
2022-09-21T14:01:29.265Z,21.90
2022-09-21T14:04:02.605Z,22.20
2022-09-21T14:06:38.158Z,22.60
2022-09-21T14:09:19.470Z,22.70
2022-09-21T14:12:12.496Z,22.80
2022-09-21T14:14:41.405Z,23.00
2022-09-21T14:17:39.995Z,23.10
2022-09-21T14:20:30.187Z,23.00
2022-09-21T14:23:53.313Z,22.70
2022-09-21T14:26:32.455Z,22.30
2022-09-21T14:29:25.618Z,21.80
2022-09-21T14:31:56.488Z,21.80
2022-09-21T14:34:28.647Z,21.80
2022-09-21T14:37:21.597Z,22.00
2022-09-21T14:39:53.039Z,21.80
2022-09-21T14:42:31.522Z,21.60
2022-09-21T14:45:03.239Z,21.60
2022-09-21T14:47:55.916Z,21.50
2022-09-21T14:50:28.160Z,21.60
2022-09-21T14:53:18.761Z,21.70
2022-09-21T14:56:21.739Z,21.80
2022-09-21T14:59:07.223Z,21.80
2022-09-21T15:01:37.690Z,21.80
2022-09-21T15:04:29.741Z,21.80
2022-09-21T15:07:39.458Z,21.50
2022-09-21T15:10:44.854Z,21.00
2022-09-21T15:13:19.486Z,20.80
2022-09-21T15:16:06.464Z,20.60
2022-09-21T15:18:39.102Z,20.70
2022-09-21T15:21:29.567Z,20.90
2022-09-21T15:24:25.535Z,20.80
2022-09-21T15:27:06.287Z,20.90
2022-09-21T15:29:33.700Z,21.00
2022-09-21T15:32:01.011Z,21.00
2022-09-21T15:34:28.851Z,20.70
2022-09-21T15:37:06.892Z,20.50
2022-09-21T15:39:40.746Z,20.40
2022-09-21T15:42:07.643Z,20.20
2022-09-21T15:44:38.617Z,20.00
2022-09-21T15:47:15.518Z,19.70
2022-09-21T15:49:45.132Z,19.50
2022-09-21T15:52:24.134Z,19.30
2022-09-21T15:54:58.267Z,19.20
2022-09-21T15:57:39.608Z,19.20
2022-09-21T16:00:20.663Z,19.10
2022-09-21T16:03:05.514Z,19.00
2022-09-21T16:05:51.440Z,18.90
2022-09-21T16:08:33.114Z,18.80
2022-09-21T16:11:25.543Z,18.80
2022-09-21T16:14:37.639Z,18.60
2022-09-21T16:17:18.443Z,18.50
2022-09-21T16:22:43.761Z,18.20
2022-09-21T16:25:39.715Z,18.20
2022-09-21T16:28:17.552Z,18.10
2022-09-21T16:30:56.595Z,18.00
2022-09-21T16:33:36.697Z,18.00
2022-09-21T16:36:05.376Z,17.90
2022-09-21T16:38:33.103Z,17.90
2022-09-21T16:41:01.833Z,17.70
2022-09-21T16:43:31.760Z,17.70
2022-09-21T16:45:59.231Z,17.50
2022-09-21T16:48:26.066Z,17.40
2022-09-21T16:51:29.197Z,17.30
2022-09-21T16:53:59.296Z,17.10
2022-09-21T17:15:14.382Z,16.50
2022-09-21T17:17:44.107Z,16.40
2022-09-21T17:20:19.774Z,16.30
2022-09-21T17:22:50.382Z,16.20
2022-09-21T17:25:19.271Z,16.10
2022-09-21T17:28:25.245Z,16.00
2022-09-21T17:30:56.905Z,16.00
2022-09-21T17:33:25.638Z,15.80
2022-09-21T17:36:24.580Z,15.80
2022-09-21T17:38:59.315Z,15.70
2022-09-21T17:41:41.610Z,15.60
2022-09-21T17:44:40.780Z,15.40
2022-09-21T17:47:27.054Z,15.30
2022-09-21T17:50:11.691Z,15.20
2022-09-21T17:53:02.613Z,15.00
2022-09-21T17:55:31.247Z,14.80
2022-09-21T17:58:06.693Z,14.50
2022-09-21T18:01:00.100Z,14.20
2022-09-21T18:03:29.446Z,14.00
2022-09-21T18:06:02.663Z,13.70
2022-09-21T18:08:34.738Z,13.60
2022-09-21T18:11:01.530Z,13.50
2022-09-21T18:13:38.405Z,13.30
2022-09-21T18:16:21.485Z,13.30
2022-09-21T18:19:05.412Z,13.20
2022-09-21T18:21:38.869Z,13.00
2022-09-21T18:24:09.208Z,12.90
2022-09-21T18:26:39.673Z,12.80
2022-09-21T18:29:37.986Z,12.70
2022-09-21T18:32:24.583Z,12.50
2022-09-21T18:35:08.082Z,12.50
2022-09-21T18:37:43.951Z,12.40
2022-09-21T18:40:35.238Z,12.30
2022-09-21T18:43:38.503Z,12.20
2022-09-21T18:46:17.808Z,12.10
2022-09-21T18:49:38.448Z,11.90
2022-09-21T18:52:38.857Z,11.90
2022-09-21T18:55:18.560Z,11.80
2022-09-21T18:57:50.608Z,11.80
2022-09-21T19:00:39.011Z,11.70
2022-09-21T19:03:17.666Z,11.70
2022-09-21T19:06:18.429Z,11.60
2022-09-21T19:09:00.500Z,11.50
2022-09-21T19:11:40.029Z,11.30
2022-09-21T19:14:29.595Z,11.30
2022-09-21T19:17:35.141Z,11.20
2022-09-21T19:20:56.236Z,11.20
2022-09-21T19:23:44.141Z,11.10
2022-09-21T19:26:16.804Z,11.10
2022-09-21T19:28:58.517Z,11.00
2022-09-21T19:31:25.759Z,10.80
2022-09-21T19:33:53.124Z,10.70
2022-09-21T19:36:23.615Z,10.60
2022-09-21T19:38:50.455Z,10.60
2022-09-21T19:41:37.482Z,10.60
2022-09-21T19:44:29.816Z,10.50
2022-09-21T19:47:17.700Z,10.40
2022-09-21T19:49:47.992Z,10.40
2022-09-21T19:52:18.896Z,10.30
2022-09-21T19:55:07.540Z,10.30
2022-09-21T19:57:53.848Z,10.30
2022-09-21T20:00:22.000Z,10.30
2022-09-21T20:03:13.007Z,10.30
2022-09-21T20:06:17.612Z,10.10
2022-09-21T20:08:57.109Z,10.00
2022-09-21T20:11:49.766Z,10.00
2022-09-21T20:14:38.066Z,9.90
2022-09-21T20:17:09.824Z,9.80
2022-09-21T20:20:08.640Z,9.80
2022-09-21T20:22:37.512Z,9.70
2022-09-21T20:25:14.765Z,9.60
2022-09-21T20:27:50.237Z,9.50
2022-09-21T20:30:33.333Z,9.50
2022-09-21T20:33:05.404Z,9.50
2022-09-21T20:35:33.536Z,9.60
2022-09-21T20:38:02.717Z,9.60
2022-09-21T20:40:31.067Z,9.50
2022-09-21T20:43:00.416Z,9.50
2022-09-21T20:45:31.525Z,9.40
2022-09-21T20:48:12.265Z,9.30
2022-09-21T20:50:50.911Z,9.30
2022-09-21T20:53:18.505Z,9.30
2022-09-21T20:55:52.924Z,9.20
2022-09-21T21:01:10.216Z,9.10
2022-09-21T21:03:37.255Z,9.10
2022-09-21T21:06:17.997Z,9.10
2022-09-21T21:08:48.005Z,9.10
2022-09-21T21:11:21.302Z,9.00
2022-09-21T21:13:51.053Z,9.00
2022-09-21T21:16:17.758Z,8.90
2022-09-21T21:18:44.456Z,8.90
2022-09-21T21:21:42.605Z,8.80
2022-09-21T21:27:21.424Z,8.80
2022-09-21T21:29:53.216Z,8.80
2022-09-21T21:32:24.993Z,8.90
2022-09-21T21:34:52.944Z,8.90
2022-09-21T21:37:24.277Z,8.90
2022-09-21T21:39:53.854Z,8.80
2022-09-21T21:42:21.221Z,8.80
2022-09-21T21:44:49.709Z,8.70
2022-09-21T21:50:04.816Z,8.60
2022-09-21T21:52:31.489Z,8.60
2022-09-21T21:55:14.818Z,8.50
2022-09-21T21:57:41.442Z,8.40
2022-09-21T22:00:10.214Z,8.30
2022-09-21T22:02:38.232Z,8.30
2022-09-21T22:05:09.911Z,8.30
2022-09-21T22:07:37.017Z,8.20
2022-09-21T22:10:08.158Z,8.10
2022-09-21T22:12:36.064Z,8.10
2022-09-21T22:15:06.046Z,8.00
2022-09-21T22:17:32.696Z,8.00
2022-09-21T22:20:07.723Z,8.00
2022-09-21T22:22:34.538Z,8.00
2022-09-21T22:25:01.475Z,8.00
2022-09-21T22:27:28.142Z,7.90
2022-09-21T22:29:54.681Z,7.90
2022-09-21T22:32:29.188Z,7.90
2022-09-21T22:35:01.389Z,7.90
2022-09-21T22:37:35.716Z,7.90
2022-09-21T22:40:17.280Z,7.90
2022-09-21T22:42:46.747Z,7.90
2022-09-21T22:45:14.135Z,7.80
2022-09-21T22:47:40.950Z,7.70
2022-09-21T22:50:10.972Z,7.70
2022-09-21T22:52:40.097Z,7.70
2022-09-21T22:55:07.234Z,7.60
2022-09-21T22:57:36.657Z,7.60
2022-09-21T23:00:09.317Z,7.60
2022-09-21T23:02:36.090Z,7.70
2022-09-21T23:05:02.834Z,7.70
2022-09-21T23:07:29.556Z,7.70
2022-09-21T23:09:56.302Z,7.70
2022-09-21T23:12:25.121Z,7.70
2022-09-21T23:14:51.743Z,7.70
2022-09-21T23:17:27.187Z,7.70
2022-09-21T23:19:53.831Z,7.80
2022-09-21T23:22:23.603Z,7.80
2022-09-21T23:24:50.413Z,7.80
2022-09-21T23:27:17.234Z,7.80
2022-09-21T23:29:43.810Z,7.70
2022-09-21T23:32:10.585Z,7.60
2022-09-21T23:34:37.324Z,7.70
2022-09-21T23:37:04.039Z,7.70
2022-09-21T23:39:30.929Z,7.70
2022-09-21T23:41:57.976Z,7.60
2022-09-21T23:44:33.604Z,7.60
2022-09-21T23:47:00.442Z,7.50
2022-09-21T23:49:27.256Z,7.40
2022-09-21T23:51:54.290Z,7.30
2022-09-21T23:54:20.961Z,7.30
2022-09-21T23:56:47.698Z,7.30
2022-09-21T23:59:16.789Z,7.30
